createdAt,value
2022-12-05T00:02:53.843Z,15.97
2022-12-05T00:05:55.436Z,16.03
2022-12-05T00:08:57.566Z,16.43
2022-12-05T00:11:59.160Z,17.33
2022-12-05T00:15:00.835Z,15.70
2022-12-05T00:18:02.427Z,17.87
2022-12-05T00:21:04.583Z,17.97
2022-12-05T00:24:07.401Z,17.47
2022-12-05T00:27:08.983Z,17.13
2022-12-05T00:30:10.679Z,16.90
2022-12-05T00:33:12.217Z,17.80
2022-12-05T00:36:15.196Z,16.93
2022-12-05T00:39:16.795Z,16.43
2022-12-05T00:42:18.538Z,18.33
2022-12-05T00:45:20.112Z,20.60
2022-12-05T00:48:21.696Z,21.33
2022-12-05T00:51:24.650Z,19.43
2022-12-05T00:54:26.298Z,17.10
2022-12-05T00:57:27.881Z,22.87
2022-12-05T01:00:29.629Z,17.37
2022-12-05T01:03:31.383Z,18.27
2022-12-05T01:06:33.473Z,18.17
2022-12-05T01:09:35.084Z,18.77
2022-12-05T01:12:36.628Z,17.23
2022-12-05T01:15:38.235Z,16.40
2022-12-05T01:18:39.860Z,14.37
2022-12-05T01:21:41.952Z,16.20
2022-12-05T01:24:43.713Z,16.90
2022-12-05T01:27:45.582Z,17.83
2022-12-05T01:30:48.711Z,16.67
2022-12-05T01:33:50.487Z,18.07
2022-12-05T01:36:52.807Z,17.43
2022-12-05T01:39:54.432Z,17.70
2022-12-05T01:42:56.354Z,16.30
2022-12-05T01:45:58.003Z,15.10
2022-12-05T01:49:20.438Z,14.13
2022-12-05T01:52:24.752Z,15.67
2022-12-05T01:55:26.520Z,16.50
2022-12-05T01:58:31.328Z,16.90
2022-12-05T02:01:33.083Z,15.77
2022-12-05T02:04:37.704Z,17.57
2022-12-05T02:07:40.772Z,16.93
2022-12-05T02:10:47.490Z,15.97
2022-12-05T02:13:55.497Z,16.60
2022-12-05T02:16:57.213Z,16.77
2022-12-05T02:20:01.958Z,17.10
2022-12-05T02:23:22.265Z,16.47
2022-12-05T02:26:36.011Z,16.63
2022-12-05T02:29:56.244Z,16.50
2022-12-05T02:33:08.686Z,18.53
2022-12-05T02:36:23.581Z,16.97
2022-12-05T02:39:41.466Z,15.60
2022-12-05T02:43:09.576Z,15.83
2022-12-05T02:46:12.887Z,15.97
2022-12-05T02:49:17.778Z,16.37
2022-12-05T02:52:19.572Z,16.33
2022-12-05T02:55:22.351Z,16.67
2022-12-05T02:58:27.953Z,18.37
2022-12-05T03:01:31.866Z,17.90
2022-12-05T03:04:34.083Z,18.97
2022-12-05T03:07:36.630Z,17.73
2022-12-05T03:10:39.787Z,19.07
2022-12-05T03:13:44.640Z,16.30
2022-12-05T03:16:48.977Z,17.57
2022-12-05T03:19:58.120Z,16.70
2022-12-05T03:23:06.750Z,16.90
2022-12-05T03:26:14.536Z,19.13
2022-12-05T03:29:30.104Z,18.87
2022-12-05T03:32:31.726Z,16.50
2022-12-05T03:35:39.058Z,17.77
2022-12-05T03:38:45.953Z,13.03
2022-12-05T03:42:02.591Z,12.33
2022-12-05T03:45:07.936Z,12.37
2022-12-05T03:48:21.574Z,14.63
2022-12-05T03:51:25.014Z,14.07
2022-12-05T03:54:29.677Z,14.70
2022-12-05T03:57:33.242Z,13.80
2022-12-05T04:00:37.789Z,13.40
2022-12-05T04:03:41.768Z,15.20
2022-12-05T04:06:45.601Z,16.53
2022-12-05T04:09:52.214Z,18.77
2022-12-05T04:12:55.486Z,14.40
2022-12-05T04:16:27.844Z,15.07
2022-12-05T04:20:00.323Z,14.73
2022-12-05T04:23:02.665Z,13.80
2022-12-05T04:26:09.899Z,14.50
2022-12-05T04:29:15.494Z,14.33
2022-12-05T04:32:18.037Z,13.87
2022-12-05T04:35:23.132Z,14.10
2022-12-05T04:38:26.832Z,14.80
2022-12-05T04:41:31.516Z,14.63
2022-12-05T04:44:34.870Z,17.03
2022-12-05T04:47:39.414Z,17.30
2022-12-05T04:50:42.355Z,14.27
2022-12-05T04:53:45.401Z,11.20
2022-12-05T04:56:48.287Z,12.73
2022-12-05T04:59:50.253Z,12.10
2022-12-05T05:02:58.210Z,10.27
2022-12-05T05:06:00.222Z,11.33
2022-12-05T05:09:01.896Z,13.00
2022-12-05T05:12:03.915Z,17.40
2022-12-05T05:15:05.826Z,13.13
2022-12-05T05:18:09.425Z,14.43
2022-12-05T05:21:15.484Z,12.47
2022-12-05T05:24:17.559Z,13.67
2022-12-05T05:27:19.303Z,11.60
2022-12-05T05:30:22.111Z,13.70
2022-12-05T05:33:23.864Z,12.70
2022-12-05T05:36:27.448Z,13.90
2022-12-05T05:39:29.850Z,12.00
2022-12-05T05:42:31.464Z,10.83
2022-12-05T05:45:33.055Z,15.43
2022-12-05T05:48:34.944Z,12.03
2022-12-05T05:51:36.542Z,13.03
2022-12-05T05:54:38.117Z,12.73
2022-12-05T05:57:39.785Z,13.43
2022-12-05T06:00:41.359Z,12.40
2022-12-05T06:03:43.243Z,11.40
2022-12-05T06:06:44.923Z,11.30
2022-12-05T06:09:46.573Z,11.83
2022-12-05T06:12:48.149Z,11.17
2022-12-05T06:15:49.922Z,12.27
2022-12-05T06:18:51.763Z,12.97
2022-12-05T06:21:53.336Z,16.70
2022-12-05T06:24:54.876Z,13.50
2022-12-05T06:27:56.545Z,13.67
2022-12-05T06:30:58.222Z,13.50
2022-12-05T06:34:03.875Z,14.83
2022-12-05T06:37:05.695Z,13.93
2022-12-05T06:40:07.632Z,14.43
2022-12-05T06:43:09.733Z,14.00
2022-12-05T06:46:13.193Z,12.90
2022-12-05T06:49:15.079Z,15.23
2022-12-05T06:52:17.901Z,13.87
2022-12-05T06:55:19.592Z,13.87
2022-12-05T06:58:21.153Z,12.63
2022-12-05T07:01:42.867Z,12.50
2022-12-05T07:04:44.674Z,13.83
2022-12-05T07:07:46.594Z,13.43
2022-12-05T07:10:52.448Z,15.70
2022-12-05T07:13:54.127Z,14.93
2022-12-05T07:16:55.743Z,11.50
2022-12-05T07:19:57.617Z,12.90
2022-12-05T07:22:59.424Z,15.63
2022-12-05T07:26:04.676Z,13.23
2022-12-05T07:29:06.365Z,17.43
2022-12-05T07:32:08.368Z,15.60
2022-12-05T07:35:10.081Z,21.47
2022-12-05T07:38:11.701Z,25.30
2022-12-05T07:41:23.891Z,18.23
2022-12-05T07:44:25.484Z,17.27
2022-12-05T07:47:29.394Z,14.37
2022-12-05T07:50:30.985Z,14.13
2022-12-05T07:53:33.080Z,13.17
2022-12-05T07:56:34.738Z,15.40
2022-12-05T07:59:36.345Z,14.23
2022-12-05T08:02:40.794Z,13.97
2022-12-05T08:05:42.741Z,10.93
2022-12-05T08:08:44.930Z,15.67
2022-12-05T08:11:52.164Z,17.33
2022-12-05T08:14:54.279Z,25.10
2022-12-05T08:17:55.994Z,19.97
2022-12-05T08:21:04.932Z,19.60
2022-12-05T08:24:07.234Z,17.07
2022-12-05T08:27:08.831Z,15.10
2022-12-05T08:30:10.555Z,18.43
2022-12-05T08:33:12.614Z,17.50
2022-12-05T08:36:18.237Z,18.33
2022-12-05T08:39:20.058Z,27.70
2022-12-05T08:42:21.791Z,18.67
2022-12-05T08:45:23.406Z,19.53
2022-12-05T08:48:29.196Z,18.60
2022-12-05T08:51:31.155Z,19.37
2022-12-05T08:54:32.884Z,19.57
2022-12-05T08:57:34.481Z,18.30
2022-12-05T09:00:36.179Z,21.70
2022-12-05T09:03:40.099Z,14.90
2022-12-05T09:06:43.704Z,18.70
2022-12-05T09:09:45.322Z,23.43
2022-12-05T09:12:46.955Z,18.93
2022-12-05T09:15:49.610Z,20.13
2022-12-05T09:18:51.639Z,57.20
2022-12-05T09:21:53.822Z,19.03
2022-12-05T09:24:55.617Z,14.23
2022-12-05T09:27:57.639Z,19.40
2022-12-05T09:31:01.782Z,38.47
2022-12-05T09:34:03.552Z,19.83
2022-12-05T09:37:23.243Z,15.93
2022-12-05T09:40:27.121Z,15.40
2022-12-05T09:43:51.791Z,17.33
2022-12-05T09:46:53.442Z,19.00
2022-12-05T09:50:14.013Z,20.30
2022-12-05T09:53:32.982Z,17.33
2022-12-05T09:56:34.682Z,18.20
2022-12-05T09:59:36.312Z,20.67
2022-12-05T10:02:56.765Z,36.40
2022-12-05T10:06:17.321Z,21.43
2022-12-05T10:09:34.251Z,21.07
2022-12-05T10:12:42.135Z,22.40
2022-12-05T10:15:47.785Z,23.00
2022-12-05T10:18:52.662Z,25.37
2022-12-05T10:22:10.297Z,23.60
2022-12-05T10:25:13.277Z,17.30
2022-12-05T10:28:23.264Z,17.20
2022-12-05T10:31:27.963Z,19.53
2022-12-05T10:34:34.599Z,20.57
2022-12-05T10:37:36.624Z,24.10
2022-12-05T10:40:40.194Z,26.80
2022-12-05T10:43:45.588Z,26.93
2022-12-05T10:46:47.512Z,28.37
2022-12-05T10:49:49.616Z,23.97
2022-12-05T10:52:52.855Z,28.00
2022-12-05T10:56:28.931Z,28.87
2022-12-05T10:59:18.107Z,23.70
2022-12-05T11:02:27.951Z,20.97
2022-12-05T11:05:31.470Z,18.57
2022-12-05T11:09:02.990Z,18.17
2022-12-05T11:12:03.796Z,19.77
2022-12-05T11:15:22.561Z,20.23
2022-12-05T11:18:34.592Z,32.43
2022-12-05T11:21:42.566Z,28.80
2022-12-05T11:24:44.924Z,24.50
2022-12-05T11:27:46.515Z,26.97
2022-12-05T11:30:58.840Z,41.60
2022-12-05T11:34:02.556Z,58.80
2022-12-05T11:37:13.559Z,54.13
2022-12-05T11:40:38.137Z,23.40
2022-12-05T11:43:43.356Z,65.00
2022-12-05T11:46:54.233Z,39.90
2022-12-05T11:50:04.992Z,22.60
2022-12-05T11:53:14.231Z,27.40
2022-12-05T11:56:42.357Z,26.90
2022-12-05T12:00:03.721Z,24.27
2022-12-05T12:03:33.607Z,23.80
2022-12-05T12:06:53.414Z,24.67
2022-12-05T12:10:09.958Z,27.73
2022-12-05T12:13:18.116Z,35.23
2022-12-05T12:16:22.919Z,26.60
2022-12-05T12:19:57.195Z,19.77
2022-12-05T12:23:05.950Z,17.80
2022-12-05T12:26:07.633Z,22.07
2022-12-05T12:29:24.444Z,18.43
2022-12-05T12:32:26.127Z,23.30
2022-12-05T12:35:29.449Z,18.53
2022-12-05T12:38:51.679Z,26.30
2022-12-05T12:41:53.315Z,22.33
2022-12-05T12:45:01.116Z,23.17
2022-12-05T12:48:12.116Z,21.70
2022-12-05T12:51:14.044Z,21.90
2022-12-05T12:55:02.071Z,27.30
2022-12-05T12:58:18.871Z,22.63
2022-12-05T13:01:23.789Z,21.90
2022-12-05T13:04:30.156Z,27.40
2022-12-05T13:07:39.148Z,26.17
2022-12-05T13:10:43.557Z,24.97
2022-12-05T13:13:53.469Z,26.83
2022-12-05T13:16:55.968Z,26.67
2022-12-05T13:19:58.231Z,26.03
2022-12-05T13:23:04.712Z,24.93
2022-12-05T13:26:10.724Z,23.03
2022-12-05T13:29:19.033Z,25.57
2022-12-05T13:32:29.891Z,23.03
2022-12-05T13:35:51.802Z,22.53
2022-12-05T13:39:19.633Z,24.60
2022-12-05T13:42:27.810Z,22.00
2022-12-05T13:45:29.763Z,20.23
2022-12-05T13:48:34.072Z,20.30
2022-12-05T13:51:37.273Z,26.83
2022-12-05T13:54:44.295Z,28.43
2022-12-05T13:57:47.462Z,21.23
2022-12-05T14:00:52.666Z,30.30
2022-12-05T14:03:56.565Z,28.07
2022-12-05T14:06:58.902Z,39.13
2022-12-05T14:10:00.914Z,34.03
2022-12-05T14:13:23.634Z,29.13
2022-12-05T14:16:25.384Z,32.80
2022-12-05T14:19:34.645Z,31.60
2022-12-05T14:22:55.527Z,31.43
2022-12-05T14:25:59.644Z,31.73
2022-12-05T14:29:25.164Z,35.30
2022-12-05T14:32:35.400Z,31.37
2022-12-05T14:35:55.325Z,32.20
2022-12-05T14:38:57.264Z,32.27
2022-12-05T14:42:03.362Z,34.37
2022-12-05T14:45:20.313Z,41.90
2022-12-05T14:48:30.473Z,26.37
2022-12-05T14:51:35.110Z,28.90
2022-12-05T14:54:37.453Z,25.80
2022-12-05T14:57:46.489Z,26.27
2022-12-05T15:00:54.822Z,27.27
2022-12-05T15:04:05.504Z,24.13
2022-12-05T15:07:21.181Z,35.37
2022-12-05T15:10:31.955Z,34.57
2022-12-05T15:13:33.707Z,35.47
2022-12-05T15:16:41.204Z,33.43
2022-12-05T15:19:45.625Z,31.27
2022-12-05T15:22:47.320Z,32.77
2022-12-05T15:25:55.921Z,34.97
2022-12-05T15:28:59.079Z,37.47
2022-12-05T15:32:07.566Z,36.73
2022-12-05T15:35:11.876Z,39.17
2022-12-05T15:38:27.311Z,39.20
2022-12-05T15:41:29.462Z,41.13
2022-12-05T15:44:36.128Z,41.50
2022-12-05T15:47:40.427Z,35.27
2022-12-05T15:50:44.131Z,32.67
2022-12-05T15:53:48.759Z,36.23
2022-12-05T15:56:58.004Z,39.13
2022-12-05T16:00:02.859Z,33.13
2022-12-05T16:03:39.964Z,28.00
2022-12-05T16:06:46.558Z,28.17
2022-12-05T16:09:48.758Z,24.20
2022-12-05T16:12:51.308Z,24.07
2022-12-05T16:15:54.317Z,27.03
2022-12-05T16:18:57.484Z,31.10
2022-12-05T16:22:09.388Z,29.50
2022-12-05T16:25:14.059Z,28.60
2022-12-05T16:28:17.327Z,25.53
2022-12-05T16:31:19.056Z,26.57
2022-12-05T16:34:20.792Z,25.37
2022-12-05T16:37:26.961Z,27.57
2022-12-05T16:40:28.679Z,31.77
2022-12-05T16:43:33.733Z,35.20
2022-12-05T16:46:38.452Z,37.43
2022-12-05T16:49:46.085Z,39.00
2022-12-05T16:52:47.993Z,41.80
2022-12-05T16:55:50.046Z,40.83
2022-12-05T16:58:52.263Z,44.00
2022-12-05T17:01:54.034Z,41.00
2022-12-05T17:04:55.799Z,35.20
2022-12-05T17:07:57.456Z,36.90
2022-12-05T17:10:59.427Z,33.47
2022-12-05T17:14:01.595Z,36.93
2022-12-05T17:17:03.269Z,32.60
2022-12-05T17:20:05.517Z,57.80
2022-12-05T17:23:10.706Z,35.20
2022-12-05T17:26:13.533Z,36.77
2022-12-05T17:29:15.197Z,35.73
2022-12-05T17:32:16.817Z,34.10
2022-12-05T17:35:19.597Z,39.93
2022-12-05T17:38:22.077Z,29.97
2022-12-05T17:41:24.003Z,33.03
2022-12-05T17:44:25.681Z,30.43
2022-12-05T17:47:27.398Z,28.93
2022-12-05T17:50:29.958Z,33.00
2022-12-05T17:53:31.594Z,33.37
2022-12-05T17:56:33.276Z,27.30
2022-12-05T17:59:34.954Z,28.53
2022-12-05T18:02:36.607Z,37.03
2022-12-05T18:05:38.250Z,33.37
2022-12-05T18:08:40.173Z,42.27
2022-12-05T18:11:41.802Z,38.33
2022-12-05T18:14:43.487Z,32.27
2022-12-05T18:17:45.144Z,34.63
2022-12-05T18:20:46.761Z,33.83
2022-12-05T18:23:49.043Z,33.17
2022-12-05T18:26:50.611Z,34.37
2022-12-05T18:29:52.293Z,36.70
2022-12-05T18:32:54.102Z,32.70
2022-12-05T18:35:55.780Z,38.00
2022-12-05T18:38:58.070Z,35.97
2022-12-05T18:41:59.704Z,32.40
2022-12-05T18:45:01.820Z,28.47
2022-12-05T18:48:23.516Z,31.03
2022-12-05T18:51:25.356Z,31.90
2022-12-05T18:54:26.959Z,36.43
2022-12-05T18:57:28.667Z,35.97
2022-12-05T19:00:30.311Z,34.33
2022-12-05T19:03:32.513Z,38.63
2022-12-05T19:06:36.733Z,37.17
2022-12-05T19:09:38.383Z,32.50
2022-12-05T19:12:40.057Z,36.57
2022-12-05T19:15:41.701Z,30.77
2022-12-05T19:18:43.521Z,32.60
2022-12-05T19:21:45.602Z,31.73
2022-12-05T19:24:47.199Z,34.87
2022-12-05T19:27:48.921Z,35.83
2022-12-05T19:30:58.194Z,30.23
2022-12-05T19:34:01.072Z,32.27
2022-12-05T19:37:04.295Z,33.40
2022-12-05T19:40:07.333Z,33.60
2022-12-05T19:43:08.992Z,31.93
2022-12-05T19:46:12.552Z,26.20
2022-12-05T19:49:15.378Z,31.37
2022-12-05T19:52:18.049Z,31.90
2022-12-05T19:55:19.852Z,29.20
2022-12-05T19:58:21.505Z,42.37
2022-12-05T20:01:27.903Z,39.50
2022-12-05T20:04:29.510Z,27.83
2022-12-05T20:07:31.131Z,34.57
2022-12-05T20:10:33.958Z,27.10
2022-12-05T20:13:51.844Z,28.30
2022-12-05T20:16:56.237Z,30.50
2022-12-05T20:19:58.871Z,30.47
2022-12-05T20:23:00.695Z,31.53
2022-12-05T20:26:09.892Z,28.87
2022-12-05T20:29:11.645Z,31.17
2022-12-05T20:32:13.374Z,31.20
2022-12-05T20:35:16.631Z,33.53
2022-12-05T20:38:21.279Z,32.60
2022-12-05T20:41:22.999Z,34.70
2022-12-05T20:44:24.829Z,30.10
2022-12-05T20:47:26.528Z,26.97
2022-12-05T20:50:28.096Z,26.70
2022-12-05T20:53:32.586Z,27.63
2022-12-05T20:56:35.069Z,30.93
2022-12-05T20:59:36.679Z,27.17
2022-12-05T21:02:38.760Z,24.83
2022-12-05T21:05:40.422Z,25.07
2022-12-05T21:08:42.270Z,30.03
2022-12-05T21:11:44.458Z,27.83
2022-12-05T21:14:46.160Z,28.37
2022-12-05T21:17:47.733Z,29.80
2022-12-05T21:20:59.378Z,27.50
2022-12-05T21:24:01.500Z,24.50
2022-12-05T21:27:03.125Z,24.30
2022-12-05T21:30:05.344Z,25.70
2022-12-05T21:33:07.083Z,24.73
2022-12-05T21:36:09.112Z,25.40
2022-12-05T21:39:12.056Z,32.80
2022-12-05T21:42:13.700Z,26.47
2022-12-05T21:45:15.927Z,25.80
2022-12-05T21:48:17.751Z,25.83
2022-12-05T21:51:19.833Z,28.77
2022-12-05T21:54:21.399Z,42.27
2022-12-05T21:57:22.976Z,29.27
2022-12-05T22:00:24.572Z,26.37
2022-12-05T22:03:26.224Z,24.77
2022-12-05T22:06:28.226Z,23.60
2022-12-05T22:09:29.865Z,23.90
2022-12-05T22:12:33.101Z,23.97
2022-12-05T22:15:34.722Z,25.03
2022-12-05T22:18:36.760Z,26.27
2022-12-05T22:21:38.309Z,23.70
2022-12-05T22:24:40.164Z,25.17
2022-12-05T22:27:41.807Z,23.63
2022-12-05T22:30:46.441Z,23.20
2022-12-05T22:33:48.301Z,24.23
2022-12-05T22:36:51.821Z,37.70
2022-12-05T22:39:53.435Z,26.90
2022-12-05T22:42:55.012Z,35.60
2022-12-05T22:45:57.109Z,26.97
2022-12-05T22:48:58.849Z,26.50
2022-12-05T22:52:00.782Z,26.40
2022-12-05T22:55:02.460Z,29.87
2022-12-05T22:58:04.094Z,25.57
2022-12-05T23:01:15.204Z,25.83
2022-12-05T23:04:17.545Z,25.93
2022-12-05T23:07:19.203Z,25.47
2022-12-05T23:10:21.077Z,25.23
2022-12-05T23:13:22.626Z,23.90
2022-12-05T23:16:26.324Z,23.60
2022-12-05T23:19:27.995Z,32.53
2022-12-05T23:22:29.574Z,25.87
2022-12-05T23:25:31.244Z,23.80
2022-12-05T23:28:33.358Z,23.10
2022-12-05T23:31:35.029Z,22.20
2022-12-05T23:34:36.774Z,20.97
2022-12-05T23:37:38.378Z,20.43
2022-12-05T23:40:39.952Z,18.23
2022-12-05T23:43:42.093Z,17.50
2022-12-05T23:46:43.799Z,16.30
2022-12-05T23:49:45.431Z,14.37
2022-12-05T23:52:47.137Z,14.20
2022-12-05T23:55:48.723Z,16.53
2022-12-05T23:58:50.616Z,16.63
